Erwinville, Louisiana
Current Conditions -  °F | °C
As of 12:35 PM on Thursday 30 Oct 2014 (Local Time) from KHZR Reporting Station
Clear Clear  
Wind Chill: 70°   Ceiling: Unl
Heat Index: 70°   Visibility: 10mi
Dew Point: 41°   Wind: 8mph
Humidity: 35%   Direction: 20°NNE
Pressure: 30.13"   Gusts: NA
Location:  30.53°N, 91.41°W
Report Text: KHZR 301735Z AUTO 02007KT 10SM CLR 21/05 A3013 RMK AO2 T02120052
Loading
Personal Weather Stations






























Interactive Weather Map
Tropical Storm Tracking
New forecast layout! Learn more

10-Day Weather Forecast

Advertisements
Track Severe Weather on mobile